sensor_id;sensor_type;location;lat;lon;timestamp;pressure;altitude;pressure_sealevel;temperature;humidity
53900;BME280;40509;32.858;-116.858;2023-03-13T00:01:16;98350.34;;;19.35;48.96
53900;BME280;40509;32.858;-116.858;2023-03-13T00:03:44;98353.22;;;19.32;49.32
53900;BME280;40509;32.858;-116.858;2023-03-13T00:06:12;98355.97;;;19.31;49.49
53900;BME280;40509;32.858;-116.858;2023-03-13T00:08:39;98355.97;;;19.31;49.19
53900;BME280;40509;32.858;-116.858;2023-03-13T00:11:08;98363.81;;;19.31;49.70
53900;BME280;40509;32.858;-116.858;2023-03-13T00:13:36;98369.88;;;19.31;49.47
53900;BME280;40509;32.858;-116.858;2023-03-13T00:16:12;98376.91;;;19.31;49.28
53900;BME280;40509;32.858;-116.858;2023-03-13T00:18:51;98370.72;;;19.32;49.76
53900;BME280;40509;32.858;-116.858;2023-03-13T00:21:21;98370.72;;;19.32;49.60
53900;BME280;40509;32.858;-116.858;2023-03-13T00:23:49;98370.72;;;19.32;49.56
53900;BME280;40509;32.858;-116.858;2023-03-13T00:26:19;98365.47;;;19.32;49.40
53900;BME280;40509;32.858;-116.858;2023-03-13T00:28:47;98371.53;;;19.32;49.55
53900;BME280;40509;32.858;-116.858;2023-03-13T00:31:22;98367.84;;;19.35;49.63
53900;BME280;40509;32.858;-116.858;2023-03-13T00:33:52;98367.59;;;19.38;49.14
53900;BME280;40509;32.858;-116.858;2023-03-13T00:36:25;98362.22;;;19.40;49.49
53900;BME280;40509;32.858;-116.858;2023-03-13T00:38:54;98367.44;;;19.40;49.20
53900;BME280;40509;32.858;-116.858;2023-03-13T00:41:27;98365.69;;;19.40;49.34
53900;BME280;40509;32.858;-116.858;2023-03-13T00:43:56;98364.72;;;19.41;49.51
53900;BME280;40509;32.858;-116.858;2023-03-13T00:46:25;98361.25;;;19.41;49.23
53900;BME280;40509;32.858;-116.858;2023-03-13T00:48:53;98366.38;;;19.42;49.25
53900;BME280;40509;32.858;-116.858;2023-03-13T00:51:22;98355.91;;;19.42;49.42
53900;BME280;40509;32.858;-116.858;2023-03-13T00:53:50;98355.91;;;19.42;49.17
53900;BME280;40509;32.858;-116.858;2023-03-13T00:56:19;98357.56;;;19.43;49.20
53900;BME280;40509;32.858;-116.858;2023-03-13T00:58:48;98349.72;;;19.43;49.21
53900;BME280;40509;32.858;-116.858;2023-03-13T01:03:53;98352.72;;;19.38;49.36
53900;BME280;40509;32.858;-116.858;2023-03-13T01:06:23;98360.56;;;19.38;49.53
53900;BME280;40509;32.858;-116.858;2023-03-13T01:08:51;98358.78;;;19.39;49.34
53900;BME280;40509;32.858;-116.858;2023-03-13T01:11:21;98354.50;;;19.38;49.52
53900;BME280;40509;32.858;-116.858;2023-03-13T01:13:53;98354.50;;;19.38;49.38
53900;BME280;40509;32.858;-116.858;2023-03-13T01:16:32;98361.41;;;19.39;49.79
53900;BME280;40509;32.858;-116.858;2023-03-13T01:19:03;98353.66;;;19.37;49.72
53900;BME280;40509;32.858;-116.858;2023-03-13T01:21:31;98357.09;;;19.38;49.32
53900;BME280;40509;32.858;-116.858;2023-03-13T01:24:00;98363.19;;;19.38;49.87
53900;BME280;40509;32.858;-116.858;2023-03-13T01:26:27;98351.06;;;19.37;49.60
53900;BME280;40509;32.858;-116.858;2023-03-13T01:28:55;98344.03;;;19.38;49.51
53900;BME280;40509;32.858;-116.858;2023-03-13T01:31:26;98328.31;;;19.38;49.58
53900;BME280;40509;32.858;-116.858;2023-03-13T01:33:56;98328.91;;;19.42;49.76
53900;BME280;40509;32.858;-116.858;2023-03-13T01:36:25;98330.69;;;19.41;49.40
53900;BME280;40509;32.858;-116.858;2023-03-13T01:38:57;98333.31;;;19.41;49.52
53900;BME280;40509;32.858;-116.858;2023-03-13T01:41:27;98332.34;;;19.42;49.29
53900;BME280;40509;32.858;-116.858;2023-03-13T01:43:55;98338.56;;;19.41;49.55
53900;BME280;40509;32.858;-116.858;2023-03-13T01:46:25;98337.56;;;19.42;49.77
53900;BME280;40509;32.858;-116.858;2023-03-13T01:49:16;98335.94;;;19.41;49.91
53900;BME280;40509;32.858;-116.858;2023-03-13T01:51:57;98343.78;;;19.41;49.79
53900;BME280;40509;32.858;-116.858;2023-03-13T01:54:32;98347.34;;;19.40;49.94
53900;BME280;40509;32.858;-116.858;2023-03-13T01:57:15;98348.19;;;19.41;49.78
53900;BME280;40509;32.858;-116.858;2023-03-13T02:02:43;98361.66;;;19.36;49.77
53900;BME280;40509;32.858;-116.858;2023-03-13T02:05:12;98352.13;;;19.35;50.13
53900;BME280;40509;32.858;-116.858;2023-03-13T02:07:47;98352.25;;;19.33;49.70
53900;BME280;40509;32.858;-116.858;2023-03-13T02:10:16;98356.66;;;19.33;50.02
53900;BME280;40509;32.858;-116.858;2023-03-13T02:12:45;98358.44;;;19.32;49.72
53900;BME280;40509;32.858;-116.858;2023-03-13T02:15:16;98355.84;;;19.32;50.14
53900;BME280;40509;32.858;-116.858;2023-03-13T02:17:47;98355.00;;;19.32;49.84
53900;BME280;40509;32.858;-116.858;2023-03-13T02:20:17;98359.41;;;19.31;49.87
53900;BME280;40509;32.858;-116.858;2023-03-13T02:28:06;98367.38;;;19.30;50.20
53900;BME280;40509;32.858;-116.858;2023-03-13T02:30:37;98358.44;;;19.32;49.99
53900;BME280;40509;32.858;-116.858;2023-03-13T02:33:06;98361.88;;;19.33;50.03
53900;BME280;40509;32.858;-116.858;2023-03-13T02:35:35;98363.69;;;19.32;50.10
53900;BME280;40509;32.858;-116.858;2023-03-13T02:38:09;98368.78;;;19.34;50.18
53900;BME280;40509;32.858;-116.858;2023-03-13T02:40:40;98370.59;;;19.33;49.92
53900;BME280;40509;32.858;-116.858;2023-03-13T02:43:15;98376.78;;;19.32;49.89
53900;BME280;40509;32.858;-116.858;2023-03-13T02:46:09;98379.41;;;19.32;50.25
53900;BME280;40509;32.858;-116.858;2023-03-13T02:48:51;98387.25;;;19.32;50.14
53900;BME280;40509;32.858;-116.858;2023-03-13T02:51:41;98394.16;;;19.33;50.19
53900;BME280;40509;32.858;-116.858;2023-03-13T02:54:13;98402.00;;;19.33;50.31
53900;BME280;40509;32.858;-116.858;2023-03-13T02:56:45;98409.97;;;19.32;50.28
53900;BME280;40509;32.858;-116.858;2023-03-13T02:59:14;98412.81;;;19.29;50.49
53900;BME280;40509;32.858;-116.858;2023-03-13T03:01:43;98415.69;;;19.26;50.48
53900;BME280;40509;32.858;-116.858;2023-03-13T03:04:11;98415.00;;;19.24;50.83
53900;BME280;40509;32.858;-116.858;2023-03-13T03:06:39;98422.16;;;19.21;50.83
53900;BME280;40509;32.858;-116.858;2023-03-13T03:09:07;98425.47;;;19.24;50.63
53900;BME280;40509;32.858;-116.858;2023-03-13T03:11:36;98426.44;;;19.23;50.46
53900;BME280;40509;32.858;-116.858;2023-03-13T03:14:09;98429.03;;;19.23;50.57
53900;BME280;40509;32.858;-116.858;2023-03-13T03:16:41;98421.53;;;19.18;52.10
53900;BME280;40509;32.858;-116.858;2023-03-13T03:19:09;98421.91;;;19.99;50.22
53900;BME280;40509;32.858;-116.858;2023-03-13T03:21:37;98432.06;;;20.35;49.27
53900;BME280;40509;32.858;-116.858;2023-03-13T03:24:05;98430.81;;;20.70;48.61
53900;BME280;40509;32.858;-116.858;2023-03-13T03:26:32;98439.56;;;20.90;48.10
53900;BME280;40509;32.858;-116.858;2023-03-13T03:29:00;98444.59;;;21.03;47.72
53900;BME280;40509;32.858;-116.858;2023-03-13T03:31:29;98451.94;;;21.19;47.82
53900;BME280;40509;32.858;-116.858;2023-03-13T03:33:56;98462.00;;;21.04;48.22
53900;BME280;40509;32.858;-116.858;2023-03-13T03:36:24;98456.91;;;21.22;48.15
53900;BME280;40509;32.858;-116.858;2023-03-13T03:38:51;98455.53;;;21.37;47.63
53900;BME280;40509;32.858;-116.858;2023-03-13T03:41:23;98447.66;;;21.47;46.81
53900;BME280;40509;32.858;-116.858;2023-03-13T03:43:50;98456.66;;;20.75;48.49
53900;BME280;40509;32.858;-116.858;2023-03-13T03:46:22;98460.78;;;20.46;49.55
53900;BME280;40509;32.858;-116.858;2023-03-13T03:48:50;98471.06;;;20.28;49.91
53900;BME280;40509;32.858;-116.858;2023-03-13T03:51:17;98464.78;;;20.19;50.16
53900;BME280;40509;32.858;-116.858;2023-03-13T03:53:46;98474.00;;;20.14;50.43
53900;BME280;40509;32.858;-116.858;2023-03-13T03:56:13;98482.94;;;20.11;50.70
53900;BME280;40509;32.858;-116.858;2023-03-13T03:58:46;98479.38;;;20.12;51.04
53900;BME280;40509;32.858;-116.858;2023-03-13T04:01:21;98479.66;;;20.09;50.50
53900;BME280;40509;32.858;-116.858;2023-03-13T04:03:48;98483.72;;;20.02;51.11
53900;BME280;40509;32.858;-116.858;2023-03-13T04:06:16;98494.47;;;19.99;51.35
53900;BME280;40509;32.858;-116.858;2023-03-13T04:08:44;98491.97;;;19.97;51.26
53900;BME280;40509;32.858;-116.858;2023-03-13T04:11:14;98491.16;;;19.97;51.17
53900;BME280;40509;32.858;-116.858;2023-03-13T04:13:47;98500.22;;;19.93;51.28
53900;BME280;40509;32.858;-116.858;2023-03-13T04:16:14;98505.47;;;19.93;51.48
53900;BME280;40509;32.858;-116.858;2023-03-13T04:18:42;98508.78;;;19.95;51.26
53900;BME280;40509;32.858;-116.858;2023-03-13T04:21:10;98517.13;;;19.88;51.15
53900;BME280;40509;32.858;-116.858;2023-03-13T04:23:43;98522.28;;;19.90;51.79
53900;BME280;40509;32.858;-116.858;2023-03-13T04:26:11;98521.69;;;19.86;51.62
53900;BME280;40509;32.858;-116.858;2023-03-13T04:28:40;98528.00;;;19.84;51.99
53900;BME280;40509;32.858;-116.858;2023-03-13T04:31:09;98528.25;;;19.81;51.91
53900;BME280;40509;32.858;-116.858;2023-03-13T04:34:03;98524.78;;;19.80;51.96
53900;BME280;40509;32.858;-116.858;2023-03-13T04:36:40;98520.50;;;19.79;52.49
53900;BME280;40509;32.858;-116.858;2023-03-13T04:39:26;98527.63;;;19.77;52.37
53900;BME280;40509;32.858;-116.858;2023-03-13T04:42:12;98522.53;;;19.76;52.73
53900;BME280;40509;32.858;-116.858;2023-03-13T04:44:58;98525.28;;;19.74;52.71
53900;BME280;40509;32.858;-116.858;2023-03-13T04:47:57;98516.69;;;19.72;52.40
53900;BME280;40509;32.858;-116.858;2023-03-13T04:50:27;98518.63;;;19.70;52.26
53900;BME280;40509;32.858;-116.858;2023-03-13T04:53:05;98527.44;;;19.69;52.20
53900;BME280;40509;32.858;-116.858;2023-03-13T04:55:50;98525.75;;;19.68;52.43
53900;BME280;40509;32.858;-116.858;2023-03-13T04:58:47;98528.38;;;19.68;52.60
53900;BME280;40509;32.858;-116.858;2023-03-13T05:01:35;98525.88;;;19.66;52.66
53900;BME280;40509;32.858;-116.858;2023-03-13T05:04:31;98521.59;;;19.65;52.32
53900;BME280;40509;32.858;-116.858;2023-03-13T05:07:17;98520.06;;;19.63;52.44
53900;BME280;40509;32.858;-116.858;2023-03-13T05:10:07;98517.56;;;19.61;52.33
53900;BME280;40509;32.858;-116.858;2023-03-13T05:12:35;98523.66;;;19.62;52.50
53900;BME280;40509;32.858;-116.858;2023-03-13T05:15:24;98520.31;;;19.60;52.35
53900;BME280;40509;32.858;-116.858;2023-03-13T05:18:09;98518.63;;;19.59;52.52
53900;BME280;40509;32.858;-116.858;2023-03-13T05:20:59;98523.19;;;19.57;52.81
53900;BME280;40509;32.858;-116.858;2023-03-13T05:23:36;98523.19;;;19.57;52.85
53900;BME280;40509;32.858;-116.858;2023-03-13T05:26:23;98525.81;;;19.57;52.57
53900;BME280;40509;32.858;-116.858;2023-03-13T05:29:02;98536.41;;;19.55;52.71
53900;BME280;40509;32.858;-116.858;2023-03-13T05:31:47;98530.31;;;19.54;52.63
53900;BME280;40509;32.858;-116.858;2023-03-13T05:34:37;98530.31;;;19.54;52.52
53900;BME280;40509;32.858;-116.858;2023-03-13T05:37:37;98531.41;;;19.52;52.43
53900;BME280;40509;32.858;-116.858;2023-03-13T05:40:31;98527.00;;;19.52;52.71
53900;BME280;40509;32.858;-116.858;2023-03-13T05:43:04;98531.53;;;19.50;52.64
53900;BME280;40509;32.858;-116.858;2023-03-13T05:45:51;98537.75;;;19.49;52.85
53900;BME280;40509;32.858;-116.858;2023-03-13T05:48:45;98534.25;;;19.49;52.74
53900;BME280;40509;32.858;-116.858;2023-03-13T05:51:47;98536.06;;;19.48;52.77
53900;BME280;40509;32.858;-116.858;2023-03-13T05:54:40;98538.81;;;19.47;52.66
53900;BME280;40509;32.858;-116.858;2023-03-13T05:57:26;98533.69;;;19.45;52.74
53900;BME280;40509;32.858;-116.858;2023-03-13T06:00:17;98535.47;;;19.45;52.82
53900;BME280;40509;32.858;-116.858;2023-03-13T06:03:04;98535.59;;;19.43;52.95
53900;BME280;40509;32.858;-116.858;2023-03-13T06:05:39;98546.06;;;19.43;52.76
53900;BME280;40509;32.858;-116.858;2023-03-13T06:08:16;98546.06;;;19.43;52.55
53900;BME280;40509;32.858;-116.858;2023-03-13T06:10:44;98546.88;;;19.44;52.85
53900;BME280;40509;32.858;-116.858;2023-03-13T06:13:11;98546.06;;;19.43;52.73
53900;BME280;40509;32.858;-116.858;2023-03-13T06:15:39;98541.91;;;19.41;52.96
53900;BME280;40509;32.858;-116.858;2023-03-13T06:18:13;98543.72;;;19.40;52.94
53900;BME280;40509;32.858;-116.858;2023-03-13T06:20:40;98547.16;;;19.41;52.89
53900;BME280;40509;32.858;-116.858;2023-03-13T06:23:07;98545.47;;;19.40;52.98
53900;BME280;40509;32.858;-116.858;2023-03-13T06:25:34;98551.69;;;19.38;53.02
53900;BME280;40509;32.858;-116.858;2023-03-13T06:28:02;98553.44;;;19.38;53.04
53900;BME280;40509;32.858;-116.858;2023-03-13T06:30:29;98550.97;;;19.36;52.94
53900;BME280;40509;32.858;-116.858;2023-03-13T06:32:57;98564.88;;;19.37;53.02
53900;BME280;40509;32.858;-116.858;2023-03-13T06:35:24;98565.00;;;19.35;53.02
53900;BME280;40509;32.858;-116.858;2023-03-13T06:37:52;98562.38;;;19.35;52.97
53900;BME280;40509;32.858;-116.858;2023-03-13T06:40:20;98571.09;;;19.36;52.63
53900;BME280;40509;32.858;-116.858;2023-03-13T06:42:47;98576.44;;;19.34;53.06
53900;BME280;40509;32.858;-116.858;2023-03-13T06:45:14;98572.97;;;19.34;52.85
53900;BME280;40509;32.858;-116.858;2023-03-13T06:47:45;98576.53;;;19.33;52.68
53900;BME280;40509;32.858;-116.858;2023-03-13T06:50:12;98576.66;;;19.31;53.00
53900;BME280;40509;32.858;-116.858;2023-03-13T06:52:39;98575.84;;;19.31;52.77
53900;BME280;40509;32.858;-116.858;2023-03-13T06:55:07;98575.03;;;19.30;53.05
53900;BME280;40509;32.858;-116.858;2023-03-13T06:57:34;98575.13;;;19.29;52.94
53900;BME280;40509;32.858;-116.858;2023-03-13T07:00:02;98569.88;;;19.29;52.94
53900;BME280;40509;32.858;-116.858;2023-03-13T07:02:31;98570.84;;;19.28;53.11
53900;BME280;40509;32.858;-116.858;2023-03-13T07:04:59;98555.28;;;19.26;52.89
53900;BME280;40509;32.858;-116.858;2023-03-13T07:07:32;98557.91;;;19.26;52.65
53900;BME280;40509;32.858;-116.858;2023-03-13T07:10:03;98553.59;;;19.25;52.81
53900;BME280;40509;32.858;-116.858;2023-03-13T07:12:31;98548.50;;;19.24;52.53
53900;BME280;40509;32.858;-116.858;2023-03-13T07:14:59;98530.19;;;19.24;52.54
53900;BME280;40509;32.858;-116.858;2023-03-13T07:17:26;98531.13;;;19.23;52.67
53900;BME280;40509;32.858;-116.858;2023-03-13T07:19:53;98538.97;;;19.23;52.68
53900;BME280;40509;32.858;-116.858;2023-03-13T07:22:21;98537.31;;;19.21;52.74
53900;BME280;40509;32.858;-116.858;2023-03-13T07:24:48;98539.22;;;19.19;52.51
53900;BME280;40509;32.858;-116.858;2023-03-13T07:27:16;98534.00;;;19.19;52.47
53900;BME280;40509;32.858;-116.858;2023-03-13T07:29:46;98529.81;;;19.17;53.00
53900;BME280;40509;32.858;-116.858;2023-03-13T07:32:14;98519.34;;;19.17;52.53
53900;BME280;40509;32.858;-116.858;2023-03-13T07:34:41;98523.75;;;19.16;52.88
53900;BME280;40509;32.858;-116.858;2023-03-13T07:37:12;98518.50;;;19.16;52.86
53900;BME280;40509;32.858;-116.858;2023-03-13T07:39:41;98510.78;;;19.15;52.88
53900;BME280;40509;32.858;-116.858;2023-03-13T07:42:11;98499.50;;;19.14;52.66
53900;BME280;40509;32.858;-116.858;2023-03-13T07:44:40;98499.50;;;19.14;52.53
53900;BME280;40509;32.858;-116.858;2023-03-13T07:47:07;98508.41;;;19.12;52.64
53900;BME280;40509;32.858;-116.858;2023-03-13T07:49:34;98513.53;;;19.13;52.61
53900;BME280;40509;32.858;-116.858;2023-03-13T07:52:07;98506.75;;;19.11;52.78
53900;BME280;40509;32.858;-116.858;2023-03-13T07:54:34;98503.31;;;19.10;52.51
53900;BME280;40509;32.858;-116.858;2023-03-13T07:57:02;98511.16;;;19.10;52.76
53900;BME280;40509;32.858;-116.858;2023-03-13T07:59:29;98505.06;;;19.10;52.48
53900;BME280;40509;32.858;-116.858;2023-03-13T08:01:56;98499.03;;;19.09;52.81
53900;BME280;40509;32.858;-116.858;2023-03-13T08:04:24;98497.34;;;19.08;52.58
53900;BME280;40509;32.858;-116.858;2023-03-13T08:06:51;98497.47;;;19.07;52.96
53900;BME280;40509;32.858;-116.858;2023-03-13T08:09:20;98501.88;;;19.06;52.33
53900;BME280;40509;32.858;-116.858;2023-03-13T08:11:47;98494.16;;;19.04;52.64
53900;BME280;40509;32.858;-116.858;2023-03-13T08:14:14;98493.31;;;19.04;52.92
53900;BME280;40509;32.858;-116.858;2023-03-13T08:16:41;98494.25;;;19.03;52.89
53900;BME280;40509;32.858;-116.858;2023-03-13T08:19:09;98487.38;;;19.02;52.63
53900;BME280;40509;32.858;-116.858;2023-03-13T08:21:37;98491.75;;;19.01;52.48
53900;BME280;40509;32.858;-116.858;2023-03-13T08:24:06;98487.38;;;19.02;52.47
53900;BME280;40509;32.858;-116.858;2023-03-13T08:26:36;98493.56;;;19.01;52.65
53900;BME280;40509;32.858;-116.858;2023-03-13T08:29:07;98484.03;;;19.00;52.73
53900;BME280;40509;32.858;-116.858;2023-03-13T08:31:55;98489.28;;;19.00;52.44
53900;BME280;40509;32.858;-116.858;2023-03-13T08:34:23;98488.59;;;18.98;52.63
53900;BME280;40509;32.858;-116.858;2023-03-13T08:36:51;98494.63;;;18.98;52.38
53900;BME280;40509;32.858;-116.858;2023-03-13T08:39:19;98495.56;;;18.97;52.80
53900;BME280;40509;32.858;-116.858;2023-03-13T08:41:46;98499.38;;;18.93;52.91
53900;BME280;40509;32.858;-116.858;2023-03-13T08:44:16;98499.50;;;18.92;52.82
53900;BME280;40509;32.858;-116.858;2023-03-13T08:46:44;98502.13;;;18.92;52.90
53900;BME280;40509;32.858;-116.858;2023-03-13T08:49:11;98509.28;;;18.90;52.92
53900;BME280;40509;32.858;-116.858;2023-03-13T08:51:38;98504.16;;;18.88;52.74
53900;BME280;40509;32.858;-116.858;2023-03-13T08:54:06;98508.66;;;18.86;52.66
53900;BME280;40509;32.858;-116.858;2023-03-13T08:56:33;98512.09;;;18.86;52.63
53900;BME280;40509;32.858;-116.858;2023-03-13T08:59:02;98515.75;;;18.84;52.78
53900;BME280;40509;32.858;-116.858;2023-03-13T09:01:33;98511.50;;;18.83;52.65
53900;BME280;40509;32.858;-116.858;2023-03-13T09:04:02;98513.28;;;18.82;53.20
53900;BME280;40509;32.858;-116.858;2023-03-13T09:06:34;98521.38;;;18.79;53.07
53900;BME280;40509;32.858;-116.858;2023-03-13T09:09:02;98522.78;;;18.83;52.95
53900;BME280;40509;32.858;-116.858;2023-03-13T09:11:31;98520.31;;;18.82;52.99
53900;BME280;40509;32.858;-116.858;2023-03-13T09:13:58;98515.75;;;18.84;52.48
53900;BME280;40509;32.858;-116.858;2023-03-13T09:16:28;98520.06;;;18.85;52.37
53900;BME280;40509;32.858;-116.858;2023-03-13T09:18:56;98521.00;;;18.84;52.50
53900;BME280;40509;32.858;-116.858;2023-03-13T09:21:32;98530.63;;;18.83;52.59
53900;BME280;40509;32.858;-116.858;2023-03-13T09:24:00;98530.75;;;18.82;52.54
53900;BME280;40509;32.858;-116.858;2023-03-13T09:26:28;98530.75;;;18.82;52.61
53900;BME280;40509;32.858;-116.858;2023-03-13T09:28:55;98529.91;;;18.81;52.71
53900;BME280;40509;32.858;-116.858;2023-03-13T09:31:26;98517.09;;;18.78;52.76
53900;BME280;40509;32.858;-116.858;2023-03-13T09:33:53;98526.59;;;18.79;52.56
53900;BME280;40509;32.858;-116.858;2023-03-13T09:36:21;98530.41;;;18.75;52.99
53900;BME280;40509;32.858;-116.858;2023-03-13T09:38:54;98530.41;;;18.75;52.64
53900;BME280;40509;32.858;-116.858;2023-03-13T09:44:35;98536.09;;;18.69;53.18
53900;BME280;40509;32.858;-116.858;2023-03-13T09:52:25;98530.97;;;18.67;53.07
53900;BME280;40509;32.858;-116.858;2023-03-13T09:54:57;98525.88;;;18.66;53.18
53900;BME280;40509;32.858;-116.858;2023-03-13T09:57:35;98530.16;;;18.67;52.76
53900;BME280;40509;32.858;-116.858;2023-03-13T10:00:10;98527.78;;;18.64;52.92
53900;BME280;40509;32.858;-116.858;2023-03-13T10:02:45;98534.31;;;18.69;52.57
53900;BME280;40509;32.858;-116.858;2023-03-13T10:05:20;98528.13;;;18.70;52.55
53900;BME280;40509;32.858;-116.858;2023-03-13T10:07:48;98528.25;;;18.69;52.78
53900;BME280;40509;32.858;-116.858;2023-03-13T10:13:38;98509.25;;;18.67;52.74
53900;BME280;40509;32.858;-116.858;2023-03-13T10:16:37;98503.28;;;18.65;52.64
53900;BME280;40509;32.858;-116.858;2023-03-13T10:19:11;98505.78;;;18.66;52.51
53900;BME280;40509;32.858;-116.858;2023-03-13T10:21:42;98511.13;;;18.65;52.90
53900;BME280;40509;32.858;-116.858;2023-03-13T10:24:15;98501.66;;;18.64;52.33
53900;BME280;40509;32.858;-116.858;2023-03-13T10:26:44;98493.06;;;18.62;52.92
53900;BME280;40509;32.858;-116.858;2023-03-13T10:31:40;98494.38;;;18.56;53.03
53900;BME280;40509;32.858;-116.858;2023-03-13T10:34:12;98485.69;;;18.56;52.97
53900;BME280;40509;32.858;-116.858;2023-03-13T10:36:54;98471.91;;;18.53;52.86
53900;BME280;40509;32.858;-116.858;2023-03-13T10:39:23;98473.72;;;18.53;53.00
53900;BME280;40509;32.858;-116.858;2023-03-13T10:41:58;98465.88;;;18.53;52.86
53900;BME280;40509;32.858;-116.858;2023-03-13T10:44:36;98455.50;;;18.51;52.84
53900;BME280;40509;32.858;-116.858;2023-03-13T10:47:05;98460.84;;;18.50;52.67
53900;BME280;40509;32.858;-116.858;2023-03-13T10:49:32;98460.97;;;18.48;52.98
53900;BME280;40509;32.858;-116.858;2023-03-13T10:52:02;98464.06;;;18.53;53.08
53900;BME280;40509;32.858;-116.858;2023-03-13T10:54:33;98462.66;;;18.49;52.62
53900;BME280;40509;32.858;-116.858;2023-03-13T10:57:28;98464.88;;;18.54;52.12
53900;BME280;40509;32.858;-116.858;2023-03-13T10:59:57;98466.56;;;18.55;52.44
53900;BME280;40509;32.858;-116.858;2023-03-13T11:02:30;98464.78;;;18.56;52.58
53900;BME280;40509;32.858;-116.858;2023-03-13T11:04:59;98464.06;;;18.53;52.55
53900;BME280;40509;32.858;-116.858;2023-03-13T11:07:36;98466.56;;;18.55;52.30
53900;BME280;40509;32.858;-116.858;2023-03-13T11:12:50;98458.97;;;18.52;52.26
53900;BME280;40509;32.858;-116.858;2023-03-13T11:15:44;98460.63;;;18.53;52.55
53900;BME280;40509;32.858;-116.858;2023-03-13T11:20:46;98457.66;;;18.46;52.94
53900;BME280;40509;32.858;-116.858;2023-03-13T11:23:37;98461.47;;;18.42;53.27
53900;BME280;40509;32.858;-116.858;2023-03-13T11:31:44;98453.84;;;18.39;53.12
53900;BME280;40509;32.858;-116.858;2023-03-13T11:36:59;98438.28;;;18.37;52.73
53900;BME280;40509;32.858;-116.858;2023-03-13T11:45:50;98428.88;;;18.35;52.97
53900;BME280;40509;32.858;-116.858;2023-03-13T11:48:34;98428.88;;;18.35;52.51
53900;BME280;40509;32.858;-116.858;2023-03-13T11:57:06;98403.47;;;18.37;52.68
53900;BME280;40509;32.858;-116.858;2023-03-13T12:02:34;98420.91;;;18.36;53.00
53900;BME280;40509;32.858;-116.858;2023-03-13T12:05:08;98422.47;;;18.39;52.64
53900;BME280;40509;32.858;-116.858;2023-03-13T12:07:48;98413.81;;;18.39;52.24
53900;BME280;40509;32.858;-116.858;2023-03-13T12:10:33;98413.00;;;18.38;52.71
53900;BME280;40509;32.858;-116.858;2023-03-13T12:13:29;98413.00;;;18.38;52.91
53900;BME280;40509;32.858;-116.858;2023-03-13T12:16:02;98418.56;;;18.33;52.89
53900;BME280;40509;32.858;-116.858;2023-03-13T12:18:39;98417.84;;;18.31;52.74
53900;BME280;40509;32.858;-116.858;2023-03-13T12:21:20;98417.72;;;18.44;52.42
53900;BME280;40509;32.858;-116.858;2023-03-13T12:29:53;98429.50;;;18.27;52.79
53900;BME280;40509;32.858;-116.858;2023-03-13T12:35:23;98419.75;;;18.29;52.42
53900;BME280;40509;32.858;-116.858;2023-03-13T12:43:32;98401.22;;;18.21;52.55
53900;BME280;40509;32.858;-116.858;2023-03-13T12:48:54;98404.66;;;18.22;52.48
53900;BME280;40509;32.858;-116.858;2023-03-13T13:00:15;98398.22;;;18.26;52.46
53900;BME280;40509;32.858;-116.858;2023-03-13T13:02:45;98391.72;;;18.31;51.97
53900;BME280;40509;32.858;-116.858;2023-03-13T13:05:20;98392.53;;;18.32;51.82
53900;BME280;40509;32.858;-116.858;2023-03-13T13:07:54;98394.19;;;18.22;52.76
53900;BME280;40509;32.858;-116.858;2023-03-13T13:10:26;98390.50;;;18.24;52.52
53900;BME280;40509;32.858;-116.858;2023-03-13T13:16:05;98398.00;;;18.17;52.59
53900;BME280;40509;32.858;-116.858;2023-03-13T13:18:40;98396.94;;;18.20;52.68
53900;BME280;40509;32.858;-116.858;2023-03-13T13:23:44;98394.94;;;18.12;52.76
53900;BME280;40509;32.858;-116.858;2023-03-13T13:28:53;98404.66;;;18.10;52.66
53900;BME280;40509;32.858;-116.858;2023-03-13T13:31:44;98409.50;;;18.15;52.17
53900;BME280;40509;32.858;-116.858;2023-03-13T13:37:01;98410.59;;;18.12;52.01
53900;BME280;40509;32.858;-116.858;2023-03-13T13:39:44;98412.38;;;18.12;52.18
53900;BME280;40509;32.858;-116.858;2023-03-13T13:47:46;98405.47;;;18.11;52.08
53900;BME280;40509;32.858;-116.858;2023-03-13T13:50:23;98415.34;;;18.07;52.61
53900;BME280;40509;32.858;-116.858;2023-03-13T13:52:51;98417.00;;;18.08;52.53
53900;BME280;40509;32.858;-116.858;2023-03-13T13:58:21;98422.44;;;18.05;52.72
53900;BME280;40509;32.858;-116.858;2023-03-13T14:00:54;98436.44;;;18.04;52.48
53900;BME280;40509;32.858;-116.858;2023-03-13T14:03:27;98440.72;;;18.05;52.58
53900;BME280;40509;32.858;-116.858;2023-03-13T14:06:02;98446.81;;;18.06;52.42
53900;BME280;40509;32.858;-116.858;2023-03-13T14:08:39;98450.13;;;18.08;52.33
53900;BME280;40509;32.858;-116.858;2023-03-13T14:11:18;98445.75;;;18.08;52.22
53900;BME280;40509;32.858;-116.858;2023-03-13T14:16:38;98448.56;;;18.05;52.21
53900;BME280;40509;32.858;-116.858;2023-03-13T14:19:28;98455.47;;;18.06;52.54
53900;BME280;40509;32.858;-116.858;2023-03-13T14:22:00;98452.84;;;18.06;52.17
53900;BME280;40509;32.858;-116.858;2023-03-13T14:24:28;98464.25;;;18.05;52.49
53900;BME280;40509;32.858;-116.858;2023-03-13T14:26:56;98461.44;;;18.08;52.14
53900;BME280;40509;32.858;-116.858;2023-03-13T14:29:23;98459.03;;;18.05;52.58
53900;BME280;40509;32.858;-116.858;2023-03-13T14:31:54;98468.53;;;18.06;52.22
53900;BME280;40509;32.858;-116.858;2023-03-13T14:34:22;98463.06;;;18.09;52.32
53900;BME280;40509;32.858;-116.858;2023-03-13T14:36:57;98476.38;;;18.06;52.64
53900;BME280;40509;32.858;-116.858;2023-03-13T14:39:42;98479.91;;;18.05;52.56
53900;BME280;40509;32.858;-116.858;2023-03-13T14:42:17;98488.59;;;18.06;52.59